createdAt,value
2017-12-23T00:02:25.935Z,100.00
2017-12-23T00:04:54.267Z,99.75
2017-12-23T00:07:22.596Z,98.96
2017-12-23T00:09:51.691Z,98.51
2017-12-23T00:12:20.018Z,98.06
2017-12-23T00:14:48.349Z,97.68
2017-12-23T00:17:18.506Z,98.66
2017-12-23T00:19:46.831Z,98.36
2017-12-23T00:22:15.168Z,97.82
2017-12-23T00:24:43.504Z,97.41
2017-12-23T00:27:11.832Z,97.90
2017-12-23T00:29:40.162Z,97.52
2017-12-23T00:32:08.517Z,97.32
2017-12-23T00:34:37.583Z,96.79
2017-12-23T00:37:05.884Z,96.23
2017-12-23T00:39:35.007Z,97.78
2017-12-23T00:42:03.330Z,99.58
2017-12-23T00:44:31.665Z,99.11
2017-12-23T00:46:59.986Z,98.83
2017-12-23T00:49:28.326Z,98.05
2017-12-23T00:51:56.653Z,96.40
2017-12-23T00:54:24.976Z,96.55
2017-12-23T00:56:53.320Z,96.83
2017-12-23T00:59:21.671Z,97.66
2017-12-23T01:01:50.028Z,97.75
2017-12-23T01:04:18.354Z,96.98
2017-12-23T01:06:46.953Z,96.76
2017-12-23T01:09:15.281Z,96.56
2017-12-23T01:11:44.371Z,96.05
2017-12-23T01:14:12.707Z,95.84
2017-12-23T01:16:41.032Z,96.07
2017-12-23T01:19:09.383Z,95.83
2017-12-23T01:21:37.710Z,95.82
2017-12-23T01:24:06.053Z,95.71
2017-12-23T01:26:34.396Z,95.90
2017-12-23T01:29:03.497Z,95.98
2017-12-23T01:31:31.866Z,95.95
2017-12-23T01:34:00.950Z,95.69
2017-12-23T01:36:29.279Z,96.05
2017-12-23T01:38:57.618Z,96.43
2017-12-23T01:41:25.964Z,96.80
2017-12-23T01:43:54.316Z,98.07
2017-12-23T01:46:22.668Z,98.50
2017-12-23T01:48:51.817Z,99.25
2017-12-23T01:51:20.139Z,99.76
2017-12-23T01:53:49.251Z,99.53
2017-12-23T01:56:17.644Z,100.00
2017-12-23T01:58:45.961Z,99.70
2017-12-23T02:01:15.042Z,99.09
2017-12-23T02:03:43.366Z,98.69
2017-12-23T02:06:11.707Z,98.33
2017-12-23T02:08:40.088Z,98.32
2017-12-23T02:11:08.437Z,97.97
2017-12-23T02:13:36.764Z,97.40
2017-12-23T02:16:05.100Z,97.12
2017-12-23T02:18:33.449Z,96.89
2017-12-23T02:21:01.772Z,96.65
2017-12-23T02:23:30.119Z,96.31
2017-12-23T02:25:58.456Z,96.60
2017-12-23T02:28:26.802Z,96.24
2017-12-23T02:30:55.134Z,95.96
2017-12-23T02:33:23.501Z,95.82
2017-12-23T02:35:51.826Z,95.44
2017-12-23T02:38:20.154Z,95.64
2017-12-23T02:40:49.234Z,95.41
2017-12-23T02:43:17.567Z,95.92
2017-12-23T02:45:45.886Z,96.08
2017-12-23T02:48:14.198Z,96.50
2017-12-23T02:50:42.533Z,98.07
2017-12-23T02:53:10.877Z,99.57
2017-12-23T02:55:39.210Z,99.75
2017-12-23T02:58:07.549Z,99.40
2017-12-23T03:00:35.894Z,98.79
2017-12-23T03:03:04.233Z,98.20
2017-12-23T03:05:32.560Z,98.28
2017-12-23T03:08:00.905Z,97.45
2017-12-23T03:10:29.234Z,97.87
2017-12-23T03:12:57.565Z,97.29
2017-12-23T03:15:25.915Z,97.08
2017-12-23T03:17:54.297Z,96.53
2017-12-23T03:20:22.639Z,96.30
2017-12-23T03:22:50.975Z,97.76
2017-12-23T03:25:19.309Z,96.86
2017-12-23T03:27:47.653Z,97.67
2017-12-23T03:30:15.991Z,97.27
2017-12-23T03:32:44.345Z,97.13
2017-12-23T03:35:12.685Z,96.66
2017-12-23T03:37:41.022Z,96.33
2017-12-23T03:40:09.410Z,96.27
2017-12-23T03:42:37.749Z,96.20
2017-12-23T03:45:06.077Z,95.85
2017-12-23T03:47:34.408Z,96.36
2017-12-23T03:50:02.743Z,96.45
2017-12-23T03:52:31.083Z,96.50
2017-12-23T03:54:59.424Z,96.39
2017-12-23T03:57:27.774Z,97.53
2017-12-23T03:59:56.117Z,97.09
2017-12-23T04:02:24.461Z,96.72
2017-12-23T04:04:52.792Z,96.48
2017-12-23T04:07:21.140Z,96.59
2017-12-23T04:09:49.527Z,96.41
2017-12-23T04:12:18.630Z,96.44
2017-12-23T04:14:46.956Z,96.28
2017-12-23T04:17:15.300Z,96.24
2017-12-23T04:19:43.636Z,96.19
2017-12-23T04:22:11.989Z,96.31
2017-12-23T04:24:40.306Z,97.51
2017-12-23T04:27:08.644Z,97.60
2017-12-23T04:29:37.008Z,97.18
2017-12-23T04:32:05.334Z,97.97
2017-12-23T04:34:33.668Z,98.05
2017-12-23T04:37:01.987Z,97.21
2017-12-23T04:39:31.096Z,97.57
2017-12-23T04:41:59.426Z,98.04
2017-12-23T04:44:27.761Z,97.49
2017-12-23T04:46:56.137Z,96.84
2017-12-23T04:49:24.477Z,96.45
2017-12-23T04:51:52.780Z,96.10
2017-12-23T04:54:21.106Z,96.00
2017-12-23T04:59:23.894Z,96.24
2017-12-23T05:01:52.192Z,97.60
2017-12-23T05:04:20.508Z,98.30
2017-12-23T05:06:48.821Z,97.81
2017-12-23T05:09:17.134Z,97.80
2017-12-23T05:11:45.454Z,98.68
2017-12-23T05:14:14.539Z,99.16
2017-12-23T05:16:44.652Z,98.48
2017-12-23T05:19:13.735Z,98.69
2017-12-23T05:21:42.075Z,98.43
2017-12-23T05:24:10.405Z,97.94
2017-12-23T05:26:39.131Z,97.90
2017-12-23T05:29:07.475Z,97.50
2017-12-23T05:31:35.803Z,97.75
2017-12-23T05:34:04.149Z,98.71
2017-12-23T05:36:32.497Z,99.63
2017-12-23T05:39:00.844Z,98.80
2017-12-23T05:41:29.181Z,98.06
2017-12-23T05:43:57.502Z,97.94
2017-12-23T05:46:25.833Z,97.61
2017-12-23T05:48:54.169Z,97.20
2017-12-23T05:51:23.274Z,96.81
2017-12-23T05:53:52.835Z,96.84
2017-12-23T05:56:21.155Z,96.88
2017-12-23T05:58:50.226Z,96.75
2017-12-23T06:01:18.560Z,97.75
2017-12-23T06:03:46.882Z,97.34
2017-12-23T06:06:15.752Z,96.89
2017-12-23T06:08:44.066Z,96.30
2017-12-23T06:11:13.168Z,96.25
2017-12-23T06:13:41.495Z,99.29
2017-12-23T06:16:09.814Z,99.97
2017-12-23T06:18:38.157Z,99.19
2017-12-23T06:21:06.501Z,98.52
2017-12-23T06:23:34.831Z,100.00
2017-12-23T06:26:03.179Z,99.29
2017-12-23T06:28:31.535Z,99.45
2017-12-23T06:30:59.862Z,99.84
2017-12-23T06:33:28.221Z,98.61
2017-12-23T06:35:56.567Z,99.77
2017-12-23T06:38:24.933Z,99.21
2017-12-23T06:40:53.255Z,98.76
2017-12-23T06:43:21.609Z,97.97
2017-12-23T06:45:49.918Z,98.17
2017-12-23T06:48:18.223Z,98.63
2017-12-23T06:50:46.538Z,97.72
2017-12-23T06:53:15.973Z,97.58
2017-12-23T06:55:44.286Z,96.74
2017-12-23T06:58:12.619Z,96.49
2017-12-23T07:00:40.956Z,96.35
2017-12-23T07:03:09.287Z,96.09
2017-12-23T07:05:37.622Z,95.90
2017-12-23T07:08:05.960Z,95.77
2017-12-23T07:10:34.282Z,96.08
2017-12-23T07:13:02.611Z,95.88
2017-12-23T07:15:30.936Z,96.16
2017-12-23T07:17:59.256Z,95.69
2017-12-23T07:20:27.592Z,96.27
2017-12-23T07:22:55.916Z,97.67
2017-12-23T07:25:24.241Z,97.32
2017-12-23T07:27:52.581Z,96.92
2017-12-23T07:30:20.912Z,96.81
2017-12-23T07:32:49.231Z,96.50
2017-12-23T07:35:17.552Z,96.61
2017-12-23T07:37:45.944Z,98.26
2017-12-23T07:40:14.258Z,98.32
2017-12-23T07:42:42.584Z,98.22
2017-12-23T07:45:10.938Z,98.74
2017-12-23T07:47:39.283Z,97.90
2017-12-23T07:50:07.626Z,97.37
2017-12-23T07:52:35.951Z,96.63
2017-12-23T07:55:04.283Z,96.83
2017-12-23T07:57:32.611Z,96.72
2017-12-23T08:00:00.930Z,97.00
2017-12-23T08:02:29.262Z,98.66
2017-12-23T08:04:57.585Z,99.15
2017-12-23T08:07:25.941Z,98.35
2017-12-23T08:09:55.032Z,97.23
2017-12-23T08:12:23.377Z,97.02
2017-12-23T08:14:51.709Z,97.20
2017-12-23T08:17:20.036Z,97.06
2017-12-23T08:19:48.377Z,97.83
2017-12-23T08:22:16.704Z,98.05
2017-12-23T08:24:45.037Z,97.72
2017-12-23T08:27:13.373Z,96.94
2017-12-23T08:29:41.704Z,97.01
2017-12-23T08:32:10.049Z,96.73
2017-12-23T08:34:38.419Z,97.27
2017-12-23T08:37:06.735Z,96.56
2017-12-23T08:39:35.068Z,95.89
2017-12-23T08:42:03.395Z,95.84
2017-12-23T08:44:31.732Z,96.00
2017-12-23T08:47:00.082Z,95.25
2017-12-23T08:49:28.391Z,95.49
2017-12-23T08:51:56.735Z,94.57
2017-12-23T08:54:25.047Z,95.28
2017-12-23T08:56:53.385Z,95.01
2017-12-23T08:59:21.717Z,94.76
2017-12-23T09:01:50.040Z,95.03
2017-12-23T09:04:18.652Z,95.03
2017-12-23T09:06:47.748Z,94.62
2017-12-23T09:09:16.085Z,93.51
2017-12-23T09:11:44.407Z,93.48
2017-12-23T09:14:12.741Z,93.16
2017-12-23T09:16:41.749Z,94.24
2017-12-23T09:19:10.077Z,94.28
2017-12-23T09:21:38.406Z,93.13
2017-12-23T09:24:06.731Z,92.05
2017-12-23T09:26:35.097Z,91.77
2017-12-23T09:29:03.437Z,93.68
2017-12-23T09:31:31.761Z,94.80
2017-12-23T09:34:00.083Z,93.04
2017-12-23T09:36:28.827Z,92.71
2017-12-23T09:38:57.141Z,92.99
2017-12-23T09:41:25.483Z,93.28
2017-12-23T09:43:54.706Z,93.22
2017-12-23T09:46:23.054Z,92.38
2017-12-23T09:48:51.371Z,91.08
2017-12-23T09:51:19.718Z,91.44
2017-12-23T09:53:48.054Z,90.96
2017-12-23T09:56:16.389Z,91.10
2017-12-23T09:58:44.706Z,91.56
2017-12-23T10:01:14.888Z,91.96
2017-12-23T10:03:43.212Z,91.35
2017-12-23T10:06:11.554Z,90.94
2017-12-23T10:08:39.900Z,91.12
2017-12-23T10:11:08.237Z,91.13
2017-12-23T10:13:36.592Z,91.06
2017-12-23T10:16:04.932Z,92.21
2017-12-23T10:18:33.261Z,91.80
2017-12-23T10:21:01.603Z,92.11
2017-12-23T10:23:29.923Z,91.66
2017-12-23T10:25:58.250Z,92.08
2017-12-23T10:28:26.558Z,92.26
2017-12-23T10:30:54.894Z,91.62
2017-12-23T10:33:23.215Z,91.12
2017-12-23T10:35:51.572Z,91.15
2017-12-23T10:38:19.908Z,91.16
2017-12-23T10:40:48.241Z,91.57
2017-12-23T10:43:16.568Z,91.24
2017-12-23T10:45:44.933Z,92.03
2017-12-23T10:48:14.033Z,92.04
2017-12-23T10:50:42.373Z,92.59
2017-12-23T10:53:10.699Z,92.25
2017-12-23T10:55:39.007Z,93.05
2017-12-23T10:58:07.318Z,92.47
2017-12-23T11:00:35.642Z,92.70
2017-12-23T11:03:03.982Z,91.81
2017-12-23T11:05:32.300Z,91.10
2017-12-23T11:08:00.637Z,91.67
2017-12-23T11:10:28.971Z,91.58
2017-12-23T11:12:57.312Z,92.37
2017-12-23T11:15:25.648Z,91.29
2017-12-23T11:17:53.981Z,91.44
2017-12-23T11:20:22.296Z,91.27
2017-12-23T11:22:50.610Z,91.24
2017-12-23T11:25:18.927Z,91.22
2017-12-23T11:27:47.260Z,90.76
2017-12-23T11:30:16.347Z,90.20
2017-12-23T11:32:45.481Z,90.09
2017-12-23T11:35:13.808Z,90.26
2017-12-23T11:37:42.139Z,90.62
2017-12-23T11:40:10.462Z,90.86
2017-12-23T11:42:38.774Z,90.75
2017-12-23T11:45:07.111Z,90.88
2017-12-23T11:47:35.454Z,91.01
2017-12-23T11:50:03.774Z,91.77
2017-12-23T11:52:32.102Z,91.54
2017-12-23T11:55:00.476Z,91.28
2017-12-23T11:57:29.065Z,91.84
2017-12-23T11:59:57.382Z,91.75
2017-12-23T12:02:25.718Z,91.49
2017-12-23T12:04:54.053Z,91.16
2017-12-23T12:07:22.376Z,91.08
2017-12-23T12:09:50.725Z,90.73
2017-12-23T12:12:20.744Z,91.33
2017-12-23T12:14:49.051Z,91.27
2017-12-23T12:17:17.426Z,91.68
2017-12-23T12:19:46.417Z,91.87
2017-12-23T12:22:14.728Z,92.58
2017-12-23T12:24:43.073Z,92.29
2017-12-23T12:27:11.414Z,92.38
2017-12-23T12:29:40.494Z,91.92
2017-12-23T12:32:08.806Z,92.63
2017-12-23T12:34:37.140Z,91.75
2017-12-23T12:37:07.030Z,91.83
2017-12-23T12:39:35.351Z,91.96
2017-12-23T12:42:03.679Z,91.76
2017-12-23T12:44:32.008Z,91.42
2017-12-23T12:47:01.112Z,90.70
2017-12-23T12:49:29.441Z,91.48
2017-12-23T12:51:58.553Z,91.14
2017-12-23T12:54:26.890Z,91.27
2017-12-23T12:56:55.237Z,91.19
2017-12-23T12:59:23.563Z,90.80
2017-12-23T13:01:51.907Z,91.01
2017-12-23T13:04:20.236Z,90.87
2017-12-23T13:06:48.575Z,91.30
2017-12-23T13:09:16.890Z,91.47
2017-12-23T13:11:45.249Z,91.25
2017-12-23T13:14:13.606Z,91.63
2017-12-23T13:16:42.644Z,91.46
2017-12-23T13:19:10.997Z,91.26
2017-12-23T13:21:39.328Z,91.30
2017-12-23T13:24:07.649Z,90.88
2017-12-23T13:26:35.976Z,91.69
2017-12-23T13:29:04.303Z,92.03
2017-12-23T13:31:32.646Z,92.04
2017-12-23T13:34:00.976Z,91.71
2017-12-23T13:36:29.322Z,92.39
2017-12-23T13:38:58.241Z,92.93
2017-12-23T13:41:26.585Z,92.75
2017-12-23T13:43:54.910Z,93.25
2017-12-23T13:46:23.254Z,93.24
2017-12-23T13:48:51.586Z,94.53
2017-12-23T13:51:20.673Z,94.31
2017-12-23T13:53:48.994Z,94.03
2017-12-23T13:56:17.326Z,93.82
2017-12-23T13:58:45.659Z,93.79
2017-12-23T14:01:13.989Z,93.41
2017-12-23T14:03:42.325Z,93.88
2017-12-23T14:06:10.657Z,93.65
2017-12-23T14:08:38.982Z,93.03
2017-12-23T14:11:07.313Z,92.51
2017-12-23T14:13:36.403Z,92.97
2017-12-23T14:16:04.728Z,92.37
2017-12-23T14:18:33.459Z,92.78
2017-12-23T14:21:01.801Z,92.78
2017-12-23T14:23:30.125Z,92.29
2017-12-23T14:25:59.234Z,92.60
2017-12-23T14:28:27.571Z,92.86
2017-12-23T14:30:55.904Z,92.66
2017-12-23T14:33:24.224Z,92.89
2017-12-23T14:35:52.560Z,93.40
2017-12-23T14:38:20.887Z,93.77
2017-12-23T14:40:49.208Z,93.55
2017-12-23T14:43:17.541Z,94.27
2017-12-23T14:45:45.861Z,95.25
2017-12-23T14:48:15.036Z,95.12
2017-12-23T14:50:43.361Z,95.27
2017-12-23T14:53:11.710Z,95.18
2017-12-23T14:55:40.024Z,95.04
2017-12-23T14:58:08.350Z,96.10
2017-12-23T15:00:36.671Z,96.64
2017-12-23T15:03:05.003Z,96.26
2017-12-23T15:05:33.342Z,96.77
2017-12-23T15:08:01.690Z,96.22
2017-12-23T15:10:29.988Z,95.52
2017-12-23T15:12:58.322Z,95.25
2017-12-23T15:15:26.643Z,95.85
2017-12-23T15:17:54.976Z,95.10
2017-12-23T15:20:23.309Z,94.21
2017-12-23T15:22:51.646Z,95.35
2017-12-23T15:25:19.962Z,95.96
2017-12-23T15:27:48.292Z,95.71
2017-12-23T15:30:16.626Z,96.36
2017-12-23T15:32:44.960Z,96.84
2017-12-23T15:35:14.047Z,96.41
2017-12-23T15:37:42.378Z,95.30
2017-12-23T15:40:10.705Z,96.46
2017-12-23T15:42:39.040Z,95.87
2017-12-23T15:45:07.358Z,95.28
2017-12-23T15:47:35.679Z,95.84
2017-12-23T15:50:03.995Z,96.17
2017-12-23T15:52:32.389Z,96.63
2017-12-23T15:55:00.737Z,96.57
2017-12-23T15:57:29.846Z,96.16
2017-12-23T15:59:58.164Z,97.10
2017-12-23T16:02:26.489Z,96.62
2017-12-23T16:04:55.575Z,96.26
2017-12-23T16:07:23.884Z,96.16
2017-12-23T16:09:52.209Z,96.40
2017-12-23T16:12:20.549Z,96.09
2017-12-23T16:14:48.871Z,95.94
2017-12-23T16:17:17.638Z,95.95
2017-12-23T16:19:45.969Z,96.56
2017-12-23T16:22:14.309Z,96.23
2017-12-23T16:24:42.653Z,96.67
2017-12-23T16:27:10.987Z,96.42
2017-12-23T16:29:39.323Z,96.69
2017-12-23T16:32:07.661Z,97.12
2017-12-23T16:34:35.997Z,96.97
2017-12-23T16:37:04.324Z,97.67
2017-12-23T16:39:32.689Z,97.15
2017-12-23T16:42:01.015Z,98.18
2017-12-23T16:44:29.329Z,97.52
2017-12-23T16:46:58.433Z,97.31
2017-12-23T16:49:27.761Z,97.43
2017-12-23T16:51:56.097Z,97.17
2017-12-23T16:54:24.441Z,97.40
2017-12-23T16:56:52.768Z,97.03
2017-12-23T16:59:21.073Z,96.55
2017-12-23T17:01:49.373Z,97.11
2017-12-23T17:04:17.674Z,97.10
2017-12-23T17:06:46.877Z,97.26
2017-12-23T17:09:15.956Z,97.22
2017-12-23T17:11:44.267Z,97.33
2017-12-23T17:14:12.609Z,96.87
2017-12-23T17:16:41.408Z,97.27
2017-12-23T17:19:09.719Z,96.89
2017-12-23T17:21:38.044Z,96.67
2017-12-23T17:24:06.380Z,96.88
2017-12-23T17:26:34.703Z,98.18
2017-12-23T17:29:21.094Z,97.84
2017-12-23T17:31:49.411Z,96.50
2017-12-23T17:34:17.804Z,95.82
2017-12-23T17:36:46.103Z,95.40
2017-12-23T17:39:14.461Z,95.21
2017-12-23T17:41:42.780Z,96.08
2017-12-23T17:44:11.126Z,95.79
2017-12-23T17:46:39.448Z,96.21
2017-12-23T17:49:07.812Z,95.52
2017-12-23T17:51:36.167Z,95.23
2017-12-23T17:54:04.547Z,95.11
2017-12-23T17:56:33.754Z,95.57
2017-12-23T17:59:02.119Z,96.06
2017-12-23T18:01:30.445Z,96.22
2017-12-23T18:03:58.783Z,95.82
2017-12-23T18:06:27.872Z,95.47
2017-12-23T18:08:56.196Z,95.20
2017-12-23T18:11:24.527Z,95.73
2017-12-23T18:13:53.651Z,96.45
2017-12-23T18:16:22.664Z,95.62
2017-12-23T18:18:51.001Z,95.83
2017-12-23T18:21:19.393Z,95.93
2017-12-23T18:23:47.748Z,95.31
2017-12-23T18:26:16.099Z,95.29
2017-12-23T18:28:45.202Z,95.30
2017-12-23T18:31:13.548Z,95.33
2017-12-23T18:33:41.889Z,95.41
2017-12-23T18:36:10.222Z,95.42
2017-12-23T18:38:40.142Z,94.99
2017-12-23T18:41:09.277Z,94.92
2017-12-23T18:43:37.644Z,95.18
2017-12-23T18:46:06.043Z,95.42
2017-12-23T18:48:34.400Z,95.23
2017-12-23T18:51:02.751Z,94.89
2017-12-23T18:53:31.084Z,95.21
2017-12-23T18:55:59.440Z,94.75
2017-12-23T18:58:27.860Z,94.56
2017-12-23T19:00:56.205Z,95.21
2017-12-23T19:03:24.575Z,95.02
2017-12-23T19:05:52.921Z,95.04
2017-12-23T19:08:22.011Z,95.25
2017-12-23T19:10:50.345Z,95.52
2017-12-23T19:13:18.774Z,95.71
2017-12-23T19:15:49.419Z,94.89
2017-12-23T19:18:17.763Z,94.39
2017-12-23T19:20:46.169Z,94.81
2017-12-23T19:23:14.507Z,93.75
2017-12-23T19:25:42.868Z,93.91
2017-12-23T19:28:11.191Z,95.04
2017-12-23T19:30:39.520Z,95.16
2017-12-23T19:33:07.905Z,95.02
2017-12-23T19:35:36.301Z,94.89
2017-12-23T19:38:04.699Z,94.41
2017-12-23T19:40:33.082Z,94.37
2017-12-23T19:43:01.433Z,94.26
2017-12-23T19:45:29.940Z,94.50
2017-12-23T19:47:58.575Z,94.47
2017-12-23T19:50:27.013Z,94.73
2017-12-23T19:52:55.478Z,95.62
2017-12-23T19:55:24.969Z,96.53
2017-12-23T19:57:53.550Z,96.27
2017-12-23T20:00:22.257Z,96.14
2017-12-23T20:02:50.693Z,96.14
2017-12-23T20:05:19.168Z,96.55
2017-12-23T20:07:48.051Z,96.46
2017-12-23T20:10:16.824Z,96.23
2017-12-23T20:12:45.470Z,96.36
2017-12-23T20:15:14.307Z,96.77
2017-12-23T20:17:42.992Z,95.73
2017-12-23T20:20:11.919Z,95.76
2017-12-23T20:22:42.106Z,95.68
2017-12-23T20:25:11.704Z,96.46
2017-12-23T20:27:41.187Z,95.41
2017-12-23T20:30:10.831Z,95.97
2017-12-23T20:32:40.364Z,95.75
2017-12-23T20:35:10.128Z,95.95
2017-12-23T20:37:39.742Z,96.02
2017-12-23T20:40:10.222Z,95.67
2017-12-23T20:42:39.853Z,95.17
2017-12-23T20:45:11.015Z,94.71
2017-12-23T20:47:41.641Z,94.85
2017-12-23T20:50:11.376Z,95.12
2017-12-23T20:52:41.238Z,95.01
2017-12-23T20:55:11.103Z,94.82
2017-12-23T20:57:40.869Z,95.60
2017-12-23T21:00:10.662Z,95.31
2017-12-23T21:02:40.435Z,94.84
2017-12-23T21:05:10.179Z,94.61
2017-12-23T21:07:39.936Z,94.91
2017-12-23T21:10:10.485Z,95.09
2017-12-23T21:12:40.333Z,95.07
2017-12-23T21:15:10.212Z,95.52
2017-12-23T21:17:39.989Z,95.43
2017-12-23T21:20:10.457Z,95.63
2017-12-23T21:22:40.372Z,95.55
2017-12-23T21:25:10.798Z,95.46
2017-12-23T21:27:40.586Z,95.67
2017-12-23T21:30:10.545Z,95.30
2017-12-23T21:32:40.322Z,95.18
2017-12-23T21:35:10.259Z,96.05
2017-12-23T21:37:40.180Z,95.31
2017-12-23T21:40:09.977Z,95.65
2017-12-23T21:42:39.840Z,95.78
2017-12-23T21:45:09.632Z,96.92
2017-12-23T21:47:39.424Z,97.17
2017-12-23T21:50:09.371Z,97.12
2017-12-23T21:52:39.362Z,97.26
2017-12-23T21:55:09.177Z,96.72
2017-12-23T21:57:39.007Z,96.01
2017-12-23T22:00:09.159Z,96.27
2017-12-23T22:02:38.889Z,96.36
2017-12-23T22:05:08.593Z,96.33
2017-12-23T22:07:39.069Z,96.41
2017-12-23T22:10:08.650Z,96.70
2017-12-23T22:12:38.465Z,96.47
2017-12-23T22:15:08.105Z,97.07
2017-12-23T22:17:37.800Z,96.71
2017-12-23T22:20:07.409Z,96.43
2017-12-23T22:22:36.884Z,95.79
2017-12-23T22:25:05.620Z,95.90
2017-12-23T22:27:34.598Z,96.40
2017-12-23T22:30:03.098Z,95.90
2017-12-23T22:32:31.618Z,95.54
2017-12-23T22:35:00.140Z,95.33
2017-12-23T22:37:28.593Z,95.00
2017-12-23T22:39:56.922Z,94.79
2017-12-23T22:42:38.196Z,94.99
2017-12-23T22:45:06.558Z,95.41
2017-12-23T22:47:34.892Z,95.37
2017-12-23T22:50:03.288Z,96.10
2017-12-23T22:52:31.636Z,95.60
2017-12-23T22:54:59.971Z,95.78
2017-12-23T22:57:28.303Z,95.72
2017-12-23T22:59:56.642Z,95.83
2017-12-23T23:02:25.761Z,96.77
2017-12-23T23:04:54.122Z,97.23
2017-12-23T23:07:23.227Z,96.76
2017-12-23T23:09:51.554Z,97.43
2017-12-23T23:12:19.893Z,97.10
2017-12-23T23:14:48.215Z,97.30
2017-12-23T23:17:16.557Z,97.92
2017-12-23T23:19:44.884Z,97.14
2017-12-23T23:22:13.244Z,97.07
2017-12-23T23:24:41.573Z,96.40
2017-12-23T23:27:09.908Z,96.12
2017-12-23T23:29:38.237Z,96.06
2017-12-23T23:32:06.565Z,96.60
2017-12-23T23:34:34.883Z,96.80
2017-12-23T23:37:03.202Z,96.80
2017-12-23T23:39:31.518Z,96.97
2017-12-23T23:41:59.846Z,96.97
2017-12-23T23:44:28.176Z,96.55
2017-12-23T23:46:56.517Z,96.67
2017-12-23T23:49:24.840Z,96.81
2017-12-23T23:51:53.941Z,96.68
2017-12-23T23:54:22.259Z,97.04
2017-12-23T23:56:50.609Z,96.81
2017-12-23T23:59:18.940Z,96.70
